Terminal Aerodrome Forecast
Issued by NWS Amarillo, TX

Home | Current Version | Previous Version | Text Only | Print | Product List | Glossary On
Versions: 1 2 3 4 5 6 7 8 9 10 11 12 13 14 15 16 17
393
FTUS44 KAMA 101521 AAA
TAFGUY
TAF AMD
KGUY 101521Z 1015/1112 VRB06KT P6SM BKN007
     FM101700 21008KT P6SM FEW200
     FM102000 18016KT P6SM FEW200=

USA.gov is the U.S. government's official web portal to all federal, state and local government web resources and services.